77NY weather

Public forecast

Using degrees Fahrenheit for public forecast. Weather courtesy of forecast.io.

Closest aviation weather report (METAR) to Hut Haven Seaplane Base

Closest report is Oswego County Airport, 14.8 nm (27.4 km) E. Retrieved 2020/08/15 15:54 UTC (47 minutes ago):

KFZY 151554Z AUTO VRB04KT 10SM CLR 27/18 A3002 RMK AO2 SLP161 T02720178

Closest aviation forecast (TAF) to Hut Haven Seaplane Base

Closest forecast is Syracuse Hancock International Airport, 30.4 nm (56.2 km) ESE. Retrieved 2020/08/15 12:22 UTC (4 hours ago):

TAF KSYR 151120Z 1512/1612 10006KT P6SM SCT100 FM160600 13006KT P6SM OVC100